Weed, CA (96094)

5:54 PM PDT on October 20, 2014 (GMT -0700)
Rancho Hills | Change Station
CLOSE
Current Station
Personal Weather Station
Location: Lake Shastina, CA
Elevation: 904 m
Nearby Weather Stations
4.2 Earthquake: Rio Dell, California (1 day ago)  

Elev 904 m 41.54 °N, 122.39 °W | Updated 10 minutes ago

Partly Cloudy
Partly Cloudy
14.4 °C
Feels Like 14.4 °C
N
11.3
Wind Variable Wind from SSW
Gusts 16.1 km/h

Today
High -- | Low -- °C
--% Chance of Precip.
Yesterday
High -- | Low -- °C
Precip. -- mm
7:27 AM 6:20 PM
Waning Crescent, 8% visible
Pressure 1012 hPa
Visibility 16.1 kilometers
Clouds Few 1676 m
Dew Point 4 °C
Humidity 51%
Rainfall 0 mm
Snow Depth Not available.
UV 1 out of 12
Pollen .90 out of 12
Air Quality Not available.
Flu Activity Sporadic
METAR KMHS 202356Z AUTO VRB03KT 10SM FEW055 13/07 A2987 RMK AO2 SLP118 60001 T01280072 10144 20111 58002

More Conditions Fewer Conditions

Pressure 1012 hPa
Visibility 16.1 kilometers
Clouds Few 1676 m
Dew Point 4 °C
Humidity 51%
Rainfall 0 mm
Snow Depth Not available.
UV 1 out of 12
Pollen .90 out of 12
Air Quality Not available.
Flu Activity Sporadic
METAR KMHS 202356Z AUTO VRB03KT 10SM FEW055 13/07 A2987 RMK AO2 SLP118 60001 T01280072 10144 20111 58002

More Conditions Fewer Conditions

10-Day Weather Forecast

Almanac

Astronomy

Oct. 20, 2014 Rise Set
Actual Time 7:27 AM PDT 6:20 PM PDT
Civil Twilight 6:59 AM PDT 6:48 PM PDT
Nautical Twilight 6:26 AM PDT 7:21 PM PDT
Astronomical Twilight 5:54 AM PDT 7:53 PM PDT
Moon 4:18 AM PDT (10/20) 4:48 PM PDT (10/20)
Length of Visible Light 11h 49m
Length of Day
10h 53m
Tomorrow will be 2m 37s shorter.
Waning Crescent, 8% of the Moon is Illuminated
Today
Waning Crescent
Oct 23
New
Oct 30
First Quarter
Nov 6
Full
Nov 14
Last Quarter

Today's Extremes

State Highs State Lows

Community

WunderPhotos

Upload Photos

1,763,565 photos uploaded!

Nearby

Snow Depth

Station Depth Elevation
Adin Mountain 0 in 6200 ft
Ward Creek #3 0 in 6750 ft
Tahoe City Cross 0 in 6750 ft
Rubicon #2 0 in 7500 ft
Echo Peak 1 in 7800 ft

Earthquake Activity

City Distance Mag. Time & Date
Rio Dell, California 213 kilometers 4.2 7:24 AM PDT
2014-10-19
Minimum magnitude displayed is 2.5.

Coastal Water Temperatures

Place Temperature
No Stations Reporting

Nearby Weather Stations